Time;durP1;ratioP1;P1;durP2;ratioP2;P2;SDS_P1;SDS_P2;PMS_P1;PMS_P2;Temp;Humidity;BMP_temperature;BMP_pressure;BME280_temperature;BME280_humidity;BME280_pressure;Samples;Min_cycle;Max_cycle;Signal;HPM_P1;HPM_P2
2021/08/30 00:01:12;;;;;;;0.50;0.50;;;12.60;99.90;;;;;;5035138;28;20448;-61
2021/08/30 00:03:39;;;;;;;1.00;0.70;;;12.60;99.90;;;;;;5034808;28;20453;-61
2021/08/30 00:06:07;;;;;;;3.00;2.80;;;12.50;99.90;;;;;;5035259;28;20448;-61
2021/08/30 00:08:34;;;;;;;3.33;3.03;;;12.50;99.90;;;;;;5035036;28;20480;-61
2021/08/30 00:11:02;;;;;;;2.73;2.57;;;12.50;99.90;;;;;;5034570;28;20797;-61
2021/08/30 00:13:29;;;;;;;1.10;1.00;;;12.50;99.90;;;;;;5035563;28;20502;-61
2021/08/30 00:15:57;;;;;;;0.50;0.40;;;12.50;99.90;;;;;;5034458;28;20853;-61
2021/08/30 00:18:24;;;;;;;0.60;0.40;;;12.40;99.90;;;;;;5035032;28;20468;-61
2021/08/30 00:20:51;;;;;;;1.50;0.70;;;12.40;99.90;;;;;;5034785;28;20479;-61
2021/08/30 00:23:18;;;;;;;0.70;0.50;;;12.50;99.90;;;;;;5034636;28;20946;-61
2021/08/30 00:25:46;;;;;;;0.77;0.50;;;12.50;99.90;;;;;;5034542;28;20456;-61
2021/08/30 00:28:14;;;;;;;0.80;0.40;;;12.50;99.90;;;;;;5034319;28;20484;-61
2021/08/30 00:30:41;;;;;;;0.60;0.40;;;12.40;99.90;;;;;;5033718;28;20460;-61
2021/08/30 00:33:08;;;;;;;0.60;0.50;;;12.50;99.90;;;;;;5034843;28;20499;-61
2021/08/30 00:35:35;;;;;;;0.70;0.60;;;12.40;99.90;;;;;;5034699;28;20464;-61
2021/08/30 00:38:02;;;;;;;0.83;0.50;;;12.40;99.90;;;;;;5034197;28;20483;-61
2021/08/30 00:40:29;;;;;;;1.57;0.47;;;12.40;99.90;;;;;;5034421;28;20941;-61
2021/08/30 00:42:56;;;;;;;0.70;0.50;;;12.40;99.90;;;;;;5034437;28;20452;-61
2021/08/30 00:45:25;;;;;;;0.60;0.40;;;12.50;99.90;;;;;;5037937;28;20853;-61
2021/08/30 00:47:54;;;;;;;1.73;0.50;;;12.60;99.90;;;;;;5034296;28;20472;-61
2021/08/30 00:50:21;;;;;;;0.90;0.40;;;12.50;99.90;;;;;;5033422;28;20543;-61
2021/08/30 00:52:51;;;;;;;0.50;0.40;;;12.50;99.90;;;;;;5034033;28;20453;-61
2021/08/30 00:55:18;;;;;;;0.60;0.40;;;12.40;99.90;;;;;;5034187;28;20511;-61
2021/08/30 00:57:45;;;;;;;0.50;0.40;;;12.40;99.90;;;;;;5033917;28;20461;-61
2021/08/30 01:00:15;;;;;;;0.60;0.40;;;12.30;99.90;;;;;;5034121;28;20859;-61
2021/08/30 01:02:44;;;;;;;1.27;0.40;;;12.40;99.90;;;;;;5034471;28;20448;-61
2021/08/30 01:05:14;;;;;;;0.70;0.40;;;12.30;99.90;;;;;;5033597;28;20522;-61
2021/08/30 01:07:49;;;;;;;0.60;0.40;;;12.30;99.90;;;;;;5034066;28;20472;-61
2021/08/30 01:10:22;;;;;;;0.60;0.40;;;12.30;99.90;;;;;;5033581;28;20475;-61
2021/08/30 01:12:52;;;;;;;0.50;0.40;;;12.30;99.90;;;;;;5016972;28;20457;-61
2021/08/30 01:15:24;;;;;;;0.60;0.40;;;12.40;99.90;;;;;;5014279;28;20500;-61
2021/08/30 01:17:54;;;;;;;0.50;0.40;;;12.50;99.90;;;;;;5014974;28;20477;-61
2021/08/30 01:20:29;;;;;;;5.30;2.13;;;12.50;99.90;;;;;;5032934;28;20445;-61
2021/08/30 01:22:58;;;;;;;0.60;0.40;;;12.40;99.90;;;;;;5033918;28;20903;-61
2021/08/30 01:25:26;;;;;;;1.03;0.40;;;12.40;99.90;;;;;;5033675;28;20457;-60
2021/08/30 01:27:55;;;;;;;0.60;0.40;;;12.50;99.90;;;;;;5033295;28;20873;-61
2021/08/30 01:30:24;;;;;;;0.50;0.40;;;12.40;99.90;;;;;;5033294;28;20538;-61
2021/08/30 01:32:54;;;;;;;0.60;0.40;;;12.30;99.90;;;;;;5033652;28;20498;-61
2021/08/30 01:35:24;;;;;;;0.50;0.30;;;12.40;99.90;;;;;;5033192;28;20449;-61
2021/08/30 01:37:54;;;;;;;0.60;0.40;;;12.40;99.90;;;;;;5033517;28;20539;-61
2021/08/30 01:40:25;;;;;;;0.60;0.40;;;12.40;99.90;;;;;;5033241;28;20445;-61
2021/08/30 01:42:54;;;;;;;0.50;0.40;;;12.30;99.90;;;;;;5033455;28;20953;-61
2021/08/30 01:45:24;;;;;;;0.93;0.83;;;12.30;99.90;;;;;;5033797;28;20460;-61
2021/08/30 01:47:55;;;;;;;0.50;0.40;;;12.30;99.90;;;;;;5033985;28;20461;-61
2021/08/30 01:50:24;;;;;;;2.73;1.27;;;12.30;99.90;;;;;;5032856;28;20492;-61
2021/08/30 01:52:52;;;;;;;0.70;0.60;;;12.30;99.90;;;;;;5033447;28;20452;-61
2021/08/30 01:55:30;;;;;;;0.57;0.40;;;12.40;99.90;;;;;;5032927;28;20544;-61
2021/08/30 02:00:47;;;;;;;0.80;0.60;;;12.30;99.90;;;;;;5033086;28;20471;-61
2021/08/30 02:03:17;;;;;;;0.80;0.50;;;12.30;99.90;;;;;;5033194;28;20490;-61
2021/08/30 02:05:46;;;;;;;1.00;0.50;;;12.40;99.90;;;;;;5032525;28;20452;-61
2021/08/30 02:08:15;;;;;;;0.60;0.47;;;12.30;99.90;;;;;;5013049;28;20469;-61
2021/08/30 02:10:43;;;;;;;0.50;0.30;;;12.20;99.90;;;;;;5023442;28;20448;-61
2021/08/30 02:13:10;;;;;;;1.53;0.50;;;12.30;99.90;;;;;;5032993;28;20518;-61
2021/08/30 02:15:37;;;;;;;0.53;0.40;;;12.20;99.90;;;;;;5032554;28;20444;-61
2021/08/30 02:18:14;;;;;;;0.73;0.40;;;12.10;99.90;;;;;;5032613;28;21050;-61
2021/08/30 02:20:55;;;;;;;0.60;0.43;;;12.20;99.90;;;;;;5032509;28;20498;-61
2021/08/30 02:23:29;;;;;;;1.33;0.40;;;12.20;99.90;;;;;;5032670;28;20452;-61
2021/08/30 02:25:59;;;;;;;0.50;0.40;;;12.30;99.90;;;;;;5032762;28;20448;-61
2021/08/30 02:28:26;;;;;;;0.60;0.40;;;12.30;99.90;;;;;;5032588;28;20519;-61
2021/08/30 02:30:54;;;;;;;0.70;0.57;;;12.30;99.90;;;;;;5032614;28;20444;-61
2021/08/30 02:33:24;;;;;;;0.80;0.60;;;12.20;99.90;;;;;;5032775;28;20477;-61
2021/08/30 02:36:00;;;;;;;1.00;0.60;;;12.20;99.90;;;;;;5032287;28;20452;-61
2021/08/30 02:38:27;;;;;;;3.83;0.70;;;12.20;99.90;;;;;;5032294;28;20575;-61
2021/08/30 02:40:55;;;;;;;0.97;0.77;;;12.20;99.90;;;;;;5031881;28;20449;-61
2021/08/30 02:43:22;;;;;;;0.80;0.70;;;12.20;99.90;;;;;;5032167;28;20445;-61
2021/08/30 02:45:49;;;;;;;1.17;0.60;;;12.30;99.90;;;;;;5038608;28;20455;-61
2021/08/30 02:48:18;;;;;;;0.67;0.60;;;12.30;99.90;;;;;;5036523;28;20499;-61
2021/08/30 02:50:46;;;;;;;0.87;0.50;;;12.30;99.90;;;;;;5032057;28;20484;-61
2021/08/30 02:53:14;;;;;;;1.00;0.60;;;12.40;99.90;;;;;;5032132;28;20969;-61
2021/08/30 02:55:42;;;;;;;1.03;0.60;;;12.40;99.90;;;;;;5032077;28;20456;-61
2021/08/30 02:58:09;;;;;;;0.60;0.50;;;12.50;99.90;;;;;;5031992;28;20468;-61
2021/08/30 03:00:37;;;;;;;0.60;0.50;;;12.40;99.90;;;;;;5036437;22;20936;-54
2021/08/30 03:03:04;;;;;;;0.50;0.40;;;12.40;99.90;;;;;;5012425;28;20445;-54
2021/08/30 03:05:33;;;;;;;1.00;0.40;;;12.50;99.90;;;;;;5012134;28;21038;-53
2021/08/30 03:08:00;;;;;;;0.67;0.43;;;12.40;99.90;;;;;;5011365;28;20482;-53
2021/08/30 03:10:29;;;;;;;1.20;0.50;;;12.50;99.90;;;;;;5021968;28;21016;-53
2021/08/30 03:12:57;;;;;;;0.80;0.40;;;12.40;99.90;;;;;;5029776;28;20452;-54
2021/08/30 03:15:25;;;;;;;0.60;0.40;;;12.40;99.90;;;;;;5031087;28;20451;-54
2021/08/30 03:17:53;;;;;;;1.43;0.50;;;12.40;99.90;;;;;;5031685;28;20499;-53
2021/08/30 03:20:24;;;;;;;2.03;0.50;;;12.40;99.90;;;;;;5031478;28;20970;-54
2021/08/30 03:22:52;;;;;;;0.67;0.63;;;12.60;99.90;;;;;;5031315;28;20980;-54
2021/08/30 03:25:23;;;;;;;1.10;0.70;;;12.60;99.90;;;;;;5031351;28;20448;-54
2021/08/30 03:27:52;;;;;;;1.40;0.53;;;12.50;99.90;;;;;;5031215;28;20448;-53
2021/08/30 03:30:19;;;;;;;0.90;0.63;;;12.40;99.90;;;;;;5031106;28;20492;-54
2021/08/30 03:32:47;;;;;;;0.60;0.50;;;12.40;99.90;;;;;;5031855;28;20510;-54
2021/08/30 03:35:16;;;;;;;0.60;0.40;;;12.40;99.90;;;;;;5031408;28;20448;-54
2021/08/30 03:37:45;;;;;;;0.67;0.47;;;12.30;99.90;;;;;;5031306;28;20539;-54
2021/08/30 03:40:13;;;;;;;0.50;0.40;;;12.20;99.90;;;;;;5031193;28;20888;-54
2021/08/30 03:42:42;;;;;;;0.70;0.50;;;12.20;99.90;;;;;;5028653;28;20463;-53
2021/08/30 03:45:13;;;;;;;0.80;0.50;;;12.20;99.90;;;;;;5030354;28;20445;-54
2021/08/30 03:47:41;;;;;;;0.53;0.47;;;12.20;99.90;;;;;;5025808;28;20449;-54
2021/08/30 03:50:10;;;;;;;1.13;0.50;;;12.10;99.90;;;;;;5029280;28;21062;-53
2021/08/30 03:52:40;;;;;;;0.60;0.50;;;12.30;99.90;;;;;;5043655;28;21008;-53
2021/08/30 03:55:10;;;;;;;0.50;0.40;;;12.20;99.90;;;;;;5026539;28;20452;-54
2021/08/30 03:57:37;;;;;;;0.60;0.50;;;12.10;99.90;;;;;;5030136;28;20449;-53
2021/08/30 04:00:08;;;;;;;0.90;0.50;;;12.20;99.90;;;;;;5029581;28;20465;-53
2021/08/30 04:02:39;;;;;;;1.23;0.50;;;12.20;99.90;;;;;;5027077;28;20535;-54
2021/08/30 04:05:08;;;;;;;1.47;0.57;;;12.20;99.90;;;;;;5030054;28;20449;-54
2021/08/30 04:07:36;;;;;;;0.70;0.60;;;12.20;99.90;;;;;;5023984;28;20455;-53
2021/08/30 04:10:06;;;;;;;0.90;0.60;;;12.20;99.90;;;;;;5018296;28;20218;-53
2021/08/30 04:12:33;;;;;;;1.63;0.53;;;12.10;99.90;;;;;;5028506;28;20448;-54
2021/08/30 04:15:01;;;;;;;1.10;0.50;;;12.30;99.90;;;;;;5033160;28;20459;-54
2021/08/30 04:17:28;;;;;;;0.63;0.50;;;12.20;99.90;;;;;;5029924;28;20522;-53
2021/08/30 04:19:56;;;;;;;0.73;0.50;;;12.20;99.90;;;;;;5030851;28;20523;-54
2021/08/30 04:22:23;;;;;;;0.97;0.70;;;12.10;99.90;;;;;;5030248;28;20456;-53
2021/08/30 04:24:50;;;;;;;0.90;0.60;;;12.10;99.90;;;;;;5030875;28;20896;-54
2021/08/30 04:27:17;;;;;;;1.20;0.60;;;12.10;99.90;;;;;;5030492;28;20506;-52
2021/08/30 04:29:44;;;;;;;3.13;0.60;;;12.20;99.90;;;;;;5031505;28;20885;-52
2021/08/30 04:32:12;;;;;;;0.70;0.50;;;12.20;99.90;;;;;;5033731;28;20875;-53
2021/08/30 04:34:41;;;;;;;0.70;0.50;;;12.40;99.90;;;;;;5034376;28;20452;-53
2021/08/30 04:37:10;;;;;;;0.80;0.50;;;12.40;99.90;;;;;;5034279;28;20449;-52
2021/08/30 04:39:37;;;;;;;1.50;0.73;;;12.50;99.90;;;;;;5029723;28;20547;-52
2021/08/30 04:42:05;;;;;;;0.60;0.50;;;12.40;99.90;;;;;;5034049;28;20452;-52
2021/08/30 04:44:32;;;;;;;1.47;0.60;;;12.40;99.90;;;;;;5034430;28;20448;-52
2021/08/30 04:47:01;;;;;;;0.77;0.60;;;12.40;99.90;;;;;;5033932;28;20448;-53
2021/08/30 04:49:28;;;;;;;0.77;0.60;;;12.50;99.90;;;;;;5014481;28;20551;-52
2021/08/30 04:51:55;;;;;;;0.70;0.50;;;12.40;99.90;;;;;;5016740;28;20464;-53
2021/08/30 04:54:24;;;;;;;1.07;0.50;;;12.40;99.90;;;;;;5029300;28;20453;-53
2021/08/30 04:56:51;;;;;;;1.07;0.50;;;12.30;99.90;;;;;;5030028;28;20450;-53
2021/08/30 04:59:18;;;;;;;3.33;0.50;;;12.40;99.90;;;;;;5032435;28;20942;-53
2021/08/30 05:01:45;;;;;;;0.80;0.60;;;12.30;99.90;;;;;;5032608;28;20452;-52
2021/08/30 05:04:12;;;;;;;0.63;0.50;;;12.30;99.90;;;;;;5028837;28;20444;-52
2021/08/30 05:06:39;;;;;;;1.23;0.50;;;12.30;99.90;;;;;;5032655;28;20848;-52
2021/08/30 05:09:07;;;;;;;0.60;0.50;;;12.50;99.90;;;;;;5032685;28;20455;-52
2021/08/30 05:11:37;;;;;;;2.10;0.70;;;12.50;99.90;;;;;;5032520;28;20492;-52
2021/08/30 05:14:04;;;;;;;1.10;0.87;;;12.40;99.90;;;;;;5029148;28;20437;-52
2021/08/30 05:16:31;;;;;;;0.77;0.60;;;12.50;99.90;;;;;;5032466;28;20449;-52
2021/08/30 05:18:58;;;;;;;1.93;1.10;;;12.40;99.90;;;;;;5032612;28;20445;-52
2021/08/30 05:21:25;;;;;;;1.20;0.80;;;12.40;99.90;;;;;;5032119;28;20476;-52
2021/08/30 05:23:52;;;;;;;0.87;0.80;;;12.50;99.90;;;;;;5032469;28;20440;-53
2021/08/30 05:26:19;;;;;;;1.27;1.17;;;12.50;99.90;;;;;;5032341;28;20449;-52
2021/08/30 05:28:47;;;;;;;2.90;1.60;;;12.50;99.90;;;;;;5032227;28;20448;-52
2021/08/30 05:31:15;;;;;;;1.30;1.20;;;12.50;99.90;;;;;;5031854;28;20476;-52
2021/08/30 05:33:42;;;;;;;2.30;1.10;;;12.70;99.90;;;;;;5032293;28;20477;-53
2021/08/30 05:36:09;;;;;;;1.63;1.20;;;12.70;99.90;;;;;;5030806;28;20451;-53
2021/08/30 05:38:36;;;;;;;1.03;0.93;;;12.70;99.90;;;;;;5032027;28;20958;-55
2021/08/30 05:41:03;;;;;;;1.43;1.13;;;12.80;99.90;;;;;;5030733;28;20460;-54
2021/08/30 05:43:30;;;;;;;1.17;1.07;;;12.80;99.90;;;;;;5032087;28;20441;-56
2021/08/30 05:45:59;;;;;;;1.33;1.20;;;12.90;99.90;;;;;;5029782;28;20472;-54
2021/08/30 05:48:26;;;;;;;1.80;1.03;;;12.90;99.90;;;;;;5030225;28;20868;-55
2021/08/30 05:50:53;;;;;;;1.27;0.87;;;12.90;99.90;;;;;;5031738;28;20858;-54
2021/08/30 05:53:22;;;;;;;1.20;1.10;;;12.90;99.90;;;;;;5031838;28;20487;-55
2021/08/30 05:55:49;;;;;;;2.70;0.90;;;13.00;99.90;;;;;;5030892;28;20926;-55
2021/08/30 05:58:16;;;;;;;1.43;0.80;;;13.00;99.90;;;;;;5031893;28;20444;-56
2021/08/30 06:00:43;;;;;;;0.97;0.90;;;13.10;99.90;;;;;;5030478;28;20522;-54
2021/08/30 06:03:11;;;;;;;1.43;0.90;;;13.10;99.90;;;;;;5031633;28;20500;-53
2021/08/30 06:05:38;;;;;;;1.20;0.90;;;13.00;99.90;;;;;;5031505;28;20841;-55
2021/08/30 06:08:06;;;;;;;1.60;1.50;;;13.00;99.90;;;;;;5031795;28;20499;-54
2021/08/30 06:10:33;;;;;;;1.67;1.30;;;13.00;99.90;;;;;;5031352;28;20484;-53
2021/08/30 06:13:00;;;;;;;1.70;1.60;;;13.00;99.90;;;;;;5031633;28;20503;-54
2021/08/30 06:15:27;;;;;;;1.77;1.67;;;12.90;99.90;;;;;;5031431;28;20460;-55
2021/08/30 06:17:54;;;;;;;1.70;1.60;;;13.00;99.90;;;;;;5031173;28;20445;-54
2021/08/30 06:20:22;;;;;;;2.17;1.80;;;13.00;99.90;;;;;;5030743;28;20999;-54
2021/08/30 06:22:50;;;;;;;2.27;1.67;;;13.00;99.90;;;;;;5031419;28;20834;-54
2021/08/30 06:25:17;;;;;;;2.20;1.80;;;13.10;99.90;;;;;;5031105;28;21000;-55
2021/08/30 06:27:44;;;;;;;1.87;1.77;;;13.10;99.90;;;;;;5031186;28;20459;-55
2021/08/30 06:30:12;;;;;;;2.20;2.00;;;13.10;99.90;;;;;;5030790;28;20860;-55
2021/08/30 06:32:39;;;;;;;1.93;1.83;;;13.10;99.90;;;;;;5031100;28;20499;-56
2021/08/30 06:35:06;;;;;;;2.67;1.70;;;13.10;99.90;;;;;;5030903;28;20499;-54
2021/08/30 06:37:37;;;;;;;1.67;1.57;;;13.30;99.90;;;;;;5030617;28;20449;-53
2021/08/30 06:40:05;;;;;;;1.50;1.13;;;13.20;99.90;;;;;;5029950;28;20471;-53
2021/08/30 06:42:32;;;;;;;1.40;1.30;;;13.20;99.90;;;;;;5028430;28;20803;-55
2021/08/30 06:45:03;;;;;;;1.73;1.63;;;13.20;99.90;;;;;;5027142;28;20452;-55
2021/08/30 06:47:30;;;;;;;1.60;1.50;;;13.40;99.90;;;;;;5030090;28;21041;-54
2021/08/30 06:49:57;;;;;;;1.40;1.30;;;13.30;99.90;;;;;;5026486;28;21008;-55
2021/08/30 06:52:25;;;;;;;2.10;1.83;;;13.30;99.90;;;;;;5030221;28;20453;-54
2021/08/30 06:54:53;;;;;;;2.20;1.80;;;13.30;99.90;;;;;;5029955;28;20961;-55
2021/08/30 06:57:20;;;;;;;3.20;1.97;;;13.40;99.90;;;;;;5031083;28;20444;-53
2021/08/30 06:59:47;;;;;;;2.23;2.03;;;13.30;99.90;;;;;;5031073;28;20487;-53
2021/08/30 07:02:14;;;;;;;3.10;2.80;;;13.20;99.90;;;;;;5031404;28;20954;-54
2021/08/30 07:04:41;;;;;;;3.17;2.60;;;13.20;99.90;;;;;;5031560;28;20528;-54
2021/08/30 07:07:08;;;;;;;2.93;2.60;;;13.20;99.90;;;;;;5031743;28;20486;-54
2021/08/30 07:09:35;;;;;;;3.97;2.70;;;13.20;99.90;;;;;;5031867;28;20535;-54
2021/08/30 07:12:04;;;;;;;3.23;2.70;;;13.30;99.90;;;;;;5031500;28;20485;-54
2021/08/30 07:14:31;;;;;;;4.67;2.93;;;13.30;99.90;;;;;;5031581;28;20598;-53
2021/08/30 07:16:58;;;;;;;3.90;2.50;;;13.20;99.90;;;;;;5031390;28;20503;-54
2021/08/30 07:19:25;;;;;;;3.47;3.17;;;13.30;99.90;;;;;;5031744;28;20472;-53
2021/08/30 07:21:52;;;;;;;3.60;2.87;;;13.30;99.90;;;;;;5030805;28;20452;-54
2021/08/30 07:24:19;;;;;;;3.10;2.57;;;13.20;99.90;;;;;;5031237;28;20514;-53
2021/08/30 07:26:46;;;;;;;3.10;2.53;;;13.30;99.90;;;;;;5031488;28;20877;-53
2021/08/30 07:29:14;;;;;;;2.43;2.23;;;13.30;99.90;;;;;;5031705;28;20499;-53
2021/08/30 07:31:41;;;;;;;2.40;2.20;;;13.40;99.90;;;;;;5031470;28;20480;-53
2021/08/30 07:34:08;;;;;;;2.50;2.30;;;13.50;99.90;;;;;;5031623;28;20942;-53
2021/08/30 07:36:35;;;;;;;2.20;2.00;;;13.50;99.90;;;;;;5031635;28;20498;-53
2021/08/30 07:39:04;;;;;;;2.30;2.10;;;13.60;99.90;;;;;;5031472;28;20511;-54
2021/08/30 07:41:31;;;;;;;2.57;1.97;;;13.60;99.90;;;;;;5031445;28;20975;-53
2021/08/30 07:43:59;;;;;;;2.20;2.00;;;13.60;99.90;;;;;;5031626;28;20449;-53
2021/08/30 07:46:27;;;;;;;1.80;1.70;;;13.70;99.90;;;;;;5031302;28;20510;-53
2021/08/30 07:48:54;;;;;;;2.30;1.90;;;13.80;99.90;;;;;;5031452;28;20877;-52
2021/08/30 07:51:21;;;;;;;3.90;1.80;;;13.80;99.90;;;;;;5030999;28;21056;-54
2021/08/30 07:53:48;;;;;;;1.97;1.60;;;13.90;99.90;;;;;;5031694;28;20452;-54
2021/08/30 07:56:16;;;;;;;2.37;2.07;;;13.90;99.90;;;;;;5031643;28;20483;-54
2021/08/30 07:58:43;;;;;;;2.10;1.83;;;13.80;99.90;;;;;;5031508;28;20527;-54
2021/08/30 08:01:10;;;;;;;2.20;2.00;;;13.80;99.90;;;;;;5015829;28;21063;-54
2021/08/30 08:03:38;;;;;;;1.80;1.70;;;13.80;99.90;;;;;;5011610;28;20458;-53
2021/08/30 08:06:05;;;;;;;3.00;2.03;;;13.80;99.90;;;;;;5014943;28;20495;-53
2021/08/30 08:08:32;;;;;;;2.20;2.00;;;13.80;99.90;;;;;;5015638;28;20449;-53
2021/08/30 08:10:59;;;;;;;2.80;2.40;;;13.80;99.90;;;;;;5015089;28;20543;-53
2021/08/30 08:13:28;;;;;;;3.80;3.13;;;13.80;99.90;;;;;;5015399;28;20449;-54
2021/08/30 08:15:55;;;;;;;4.60;2.80;;;13.90;99.90;;;;;;5015581;28;20445;-53
2021/08/30 08:18:22;;;;;;;3.80;2.37;;;13.90;99.90;;;;;;5029179;28;20571;-54
2021/08/30 08:20:51;;;;;;;3.03;2.60;;;13.90;99.90;;;;;;5034909;28;20886;-54
2021/08/30 08:23:18;;;;;;;3.27;2.90;;;13.80;99.90;;;;;;5035266;28;20522;-54
2021/08/30 08:25:45;;;;;;;4.80;3.30;;;13.90;99.90;;;;;;5034964;28;20521;-54
2021/08/30 08:28:12;;;;;;;8.40;7.10;;;14.00;99.90;;;;;;5034766;28;20946;-54
2021/08/30 08:30:39;;;;;;;9.10;7.00;;;13.90;99.90;;;;;;5034602;28;20534;-54
2021/08/30 08:33:06;;;;;;;6.77;4.90;;;13.80;99.90;;;;;;5034992;28;20452;-53
2021/08/30 08:35:34;;;;;;;5.23;4.70;;;13.90;99.90;;;;;;5034894;28;20495;-53
2021/08/30 08:38:02;;;;;;;6.30;4.50;;;13.80;99.90;;;;;;5034650;28;20480;-53
2021/08/30 08:40:29;;;;;;;8.47;6.00;;;13.80;99.90;;;;;;5034347;28;20465;-53
2021/08/30 08:42:56;;;;;;;5.30;4.73;;;13.80;99.90;;;;;;5034609;28;20452;-53
2021/08/30 08:45:23;;;;;;;5.87;5.27;;;13.80;99.90;;;;;;5034865;28;20871;-54
2021/08/30 08:47:50;;;;;;;5.40;4.90;;;13.90;99.90;;;;;;5034663;28;20871;-53
2021/08/30 08:50:20;;;;;;;4.40;3.97;;;13.90;99.90;;;;;;5034256;28;20472;-53
2021/08/30 08:52:48;;;;;;;4.63;3.90;;;14.00;99.90;;;;;;5034491;28;20491;-53
2021/08/30 08:55:17;;;;;;;10.90;3.83;;;14.20;99.90;;;;;;5034328;28;20444;-53
2021/08/30 08:57:44;;;;;;;4.40;3.60;;;14.30;99.90;;;;;;5034517;28;20448;-53
2021/08/30 09:00:13;;;;;;;3.60;3.30;;;14.30;99.90;;;;;;5051601;23;20522;-59
2021/08/30 09:02:40;;;;;;;3.13;2.80;;;14.30;99.90;;;;;;4994983;28;20506;-59
2021/08/30 09:05:20;;;;;;;3.23;2.60;;;14.20;99.90;;;;;;4995022;28;20454;-59
2021/08/30 09:07:47;;;;;;;2.70;2.50;;;14.10;99.90;;;;;;4995660;28;20529;-59
2021/08/30 09:10:20;;;;;;;2.50;2.30;;;14.20;99.90;;;;;;4994898;28;20516;-59
2021/08/30 09:12:48;;;;;;;2.80;2.17;;;14.10;99.90;;;;;;4993660;28;21104;-58
2021/08/30 09:15:19;;;;;;;3.20;2.17;;;14.10;99.90;;;;;;4994969;28;20455;-60
2021/08/30 09:17:50;;;;;;;2.43;2.17;;;14.00;99.90;;;;;;4993565;28;20462;-59
2021/08/30 09:20:18;;;;;;;2.80;2.40;;;14.10;99.90;;;;;;4992795;28;20466;-59
2021/08/30 09:22:45;;;;;;;4.47;2.57;;;14.20;99.90;;;;;;4993168;28;20439;-60
2021/08/30 09:25:13;;;;;;;2.37;2.10;;;14.10;99.90;;;;;;4992865;28;20513;-60
2021/08/30 09:27:46;;;;;;;2.93;2.67;;;14.20;99.90;;;;;;4989448;28;20882;-59
2021/08/30 09:30:14;;;;;;;2.70;2.50;;;14.20;99.90;;;;;;4993008;28;20446;-58
2021/08/30 09:32:43;;;;;;;3.53;2.60;;;14.20;99.90;;;;;;4992855;28;20482;-59
2021/08/30 09:35:10;;;;;;;3.10;2.80;;;14.30;99.90;;;;;;4993151;28;20442;-59
2021/08/30 09:37:40;;;;;;;2.90;2.60;;;14.40;99.90;;;;;;4993170;28;20878;-59
2021/08/30 09:40:09;;;;;;;3.30;2.70;;;14.40;99.90;;;;;;4989506;28;20455;-59
2021/08/30 09:42:40;;;;;;;3.20;2.90;;;14.40;99.90;;;;;;4993063;28;21112;-59
2021/08/30 09:45:13;;;;;;;5.77;3.00;;;14.30;99.90;;;;;;4992883;28;20469;-59
2021/08/30 09:47:52;;;;;;;7.30;2.87;;;14.30;99.90;;;;;;4992678;28;20458;-59
2021/08/30 09:50:19;;;;;;;3.00;2.73;;;14.30;99.90;;;;;;4992625;28;20520;-59
2021/08/30 09:52:46;;;;;;;3.53;2.80;;;14.30;99.90;;;;;;4992773;28;20482;-59
2021/08/30 09:55:16;;;;;;;3.90;2.67;;;14.20;99.90;;;;;;4992607;28;20975;-59
2021/08/30 09:57:49;;;;;;;2.83;2.60;;;14.20;99.90;;;;;;4992610;28;20821;-59
2021/08/30 10:00:18;;;;;;;3.30;3.00;;;14.20;99.90;;;;;;4988141;28;20474;-59
2021/08/30 10:02:48;;;;;;;3.27;2.97;;;14.20;99.90;;;;;;4992699;28;20991;-59
2021/08/30 10:05:16;;;;;;;5.13;3.03;;;14.20;99.90;;;;;;4992468;28;20885;-59
2021/08/30 10:07:44;;;;;;;3.00;2.80;;;14.20;99.90;;;;;;4992559;28;20442;-59
2021/08/30 10:10:13;;;;;;;3.07;2.70;;;14.30;99.90;;;;;;4995034;28;20994;-59
2021/08/30 10:12:42;;;;;;;5.47;3.20;;;14.30;99.90;;;;;;5002570;28;20488;-59
2021/08/30 10:15:13;;;;;;;5.20;3.53;;;14.30;99.90;;;;;;4997504;28;20450;-59
2021/08/30 10:17:47;;;;;;;5.57;3.80;;;14.40;99.90;;;;;;4993488;28;20513;-58
2021/08/30 10:20:18;;;;;;;3.83;3.40;;;14.40;99.90;;;;;;4993354;28;20940;-59
2021/08/30 10:22:56;;;;;;;3.40;2.70;;;14.40;99.90;;;;;;4993421;28;20540;-59
2021/08/30 10:25:23;;;;;;;3.40;2.93;;;14.50;99.90;;;;;;4993070;28;20798;-59
2021/08/30 10:27:59;;;;;;;3.77;2.73;;;14.50;99.90;;;;;;4992882;28;20446;-59
2021/08/30 10:30:27;;;;;;;3.97;2.80;;;14.60;99.90;;;;;;4993156;28;20821;-59
2021/08/30 10:32:58;;;;;;;2.90;2.47;;;14.60;99.90;;;;;;4993016;28;20532;-59
2021/08/30 10:35:29;;;;;;;3.40;3.10;;;14.60;99.90;;;;;;4993395;28;20457;-59
2021/08/30 10:37:59;;;;;;;4.93;4.43;;;14.70;99.90;;;;;;4993152;28;20944;-59
2021/08/30 10:40:27;;;;;;;2.93;2.67;;;14.70;99.90;;;;;;4992823;28;20470;-59
2021/08/30 10:43:03;;;;;;;6.13;5.57;;;14.60;99.90;;;;;;4993251;28;20450;-59
2021/08/30 10:45:35;;;;;;;12.77;10.93;;;14.50;99.90;;;;;;4993057;28;21006;-59
2021/08/30 10:48:07;;;;;;;10.47;9.20;;;14.50;99.90;;;;;;4992924;28;21019;-59
2021/08/30 10:50:40;;;;;;;5.20;4.03;;;14.50;99.90;;;;;;4992688;28;20529;-60
2021/08/30 10:53:09;;;;;;;4.40;3.10;;;14.50;99.90;;;;;;4992865;28;20541;-58
2021/08/30 10:55:39;;;;;;;3.47;3.17;;;14.40;99.90;;;;;;4992979;28;20529;-59
2021/08/30 10:58:19;;;;;;;4.73;3.80;;;14.40;99.90;;;;;;4993036;28;20454;-59
2021/08/30 11:00:47;;;;;;;4.50;3.47;;;14.50;99.90;;;;;;4992454;28;20481;-59
2021/08/30 11:03:30;;;;;;;5.10;3.63;;;14.50;99.90;;;;;;4992846;28;20449;-59
2021/08/30 11:06:06;;;;;;;5.00;4.10;;;14.70;99.90;;;;;;4992936;28;20446;-59
2021/08/30 11:08:34;;;;;;;4.03;3.63;;;15.00;99.90;;;;;;4992702;28;20461;-60
2021/08/30 11:11:15;;;;;;;4.90;3.50;;;15.40;99.90;;;;;;4992345;28;21058;-60
2021/08/30 11:13:44;;;;;;;3.27;2.97;;;15.90;99.90;;;;;;4992753;28;20509;-59
2021/08/30 11:16:19;;;;;;;3.03;2.83;;;16.40;99.90;;;;;;4992570;28;20442;-60
2021/08/30 11:18:58;;;;;;;2.70;2.50;;;16.70;99.90;;;;;;4992149;28;20530;-63
2021/08/30 11:21:39;;;;;;;3.50;2.90;;;16.80;99.90;;;;;;4992104;28;20478;-62
2021/08/30 11:24:08;;;;;;;3.60;3.30;;;16.80;99.90;;;;;;4992211;28;20457;-62
2021/08/30 11:26:37;;;;;;;4.77;3.17;;;16.80;99.90;;;;;;4990782;28;20508;-61
2021/08/30 11:29:08;;;;;;;3.03;2.83;;;16.70;99.90;;;;;;4992328;28;20455;-61
2021/08/30 11:31:39;;;;;;;3.37;3.07;;;16.50;99.90;;;;;;4992142;28;20493;-61
2021/08/30 11:34:09;;;;;;;3.30;3.00;;;16.40;99.90;;;;;;4992741;28;20455;-61
2021/08/30 11:36:49;;;;;;;3.50;3.20;;;16.40;99.90;;;;;;4992554;28;20940;-61
2021/08/30 11:39:17;;;;;;;4.30;3.90;;;16.60;99.90;;;;;;4992351;28;20524;-62
2021/08/30 11:41:45;;;;;;;3.47;2.87;;;16.60;99.90;;;;;;4995630;28;21052;-62
2021/08/30 11:44:14;;;;;;;2.67;2.47;;;16.50;99.90;;;;;;4995758;28;20447;-62
2021/08/30 11:46:42;;;;;;;3.00;2.70;;;16.50;99.90;;;;;;4995750;28;20454;-61
2021/08/30 11:49:11;;;;;;;2.77;2.50;;;16.40;99.90;;;;;;4995560;28;20458;-62
2021/08/30 11:51:42;;;;;;;2.07;1.97;;;16.50;99.90;;;;;;4994907;28;20532;-62
2021/08/30 11:54:13;;;;;;;6.93;3.60;;;16.60;99.90;;;;;;4995527;28;20504;-62
2021/08/30 11:56:40;;;;;;;4.93;2.43;;;16.80;99.90;;;;;;4995869;28;20454;-61
2021/08/30 11:59:07;;;;;;;5.87;3.70;;;16.80;99.90;;;;;;4995432;28;20879;-62
2021/08/30 12:01:39;;;;;;;10.37;4.20;;;16.80;99.90;;;;;;4993398;28;20529;-61
2021/08/30 12:04:17;;;;;;;9.47;3.70;;;16.70;99.90;;;;;;4995539;28;20545;-62
2021/08/30 12:06:53;;;;;;;7.90;4.30;;;16.60;99.90;;;;;;4994337;28;20450;-62
2021/08/30 12:09:21;;;;;;;2.40;2.20;;;16.60;99.90;;;;;;4996142;28;20508;-61
2021/08/30 12:11:50;;;;;;;3.20;2.97;;;16.70;99.90;;;;;;4995240;28;20470;-62
2021/08/30 12:14:20;;;;;;;2.27;2.07;;;16.80;99.90;;;;;;4995566;28;20458;-62
2021/08/30 12:16:48;;;;;;;2.57;2.37;;;16.80;99.90;;;;;;4995852;28;20980;-63
2021/08/30 12:19:16;;;;;;;1.60;1.50;;;16.80;99.90;;;;;;4995591;28;20516;-62
2021/08/30 12:21:43;;;;;;;1.93;1.63;;;17.00;99.90;;;;;;4995103;28;20532;-62
2021/08/30 12:24:19;;;;;;;1.43;1.30;;;17.40;99.90;;;;;;4994972;28;20449;-62
2021/08/30 12:26:47;;;;;;;2.17;1.50;;;17.50;99.90;;;;;;4995198;28;20481;-62
2021/08/30 12:29:15;;;;;;;1.63;1.53;;;17.50;99.90;;;;;;4995404;28;20545;-61
2021/08/30 12:31:42;;;;;;;2.03;1.83;;;17.40;99.90;;;;;;4993977;28;20987;-61
2021/08/30 12:34:12;;;;;;;1.93;1.83;;;17.20;99.90;;;;;;4994177;28;20509;-62
2021/08/30 12:36:42;;;;;;;1.60;1.50;;;17.10;99.90;;;;;;4991414;28;20544;-61
2021/08/30 12:39:09;;;;;;;1.60;1.50;;;17.20;99.90;;;;;;4993731;28;20478;-62
2021/08/30 12:41:36;;;;;;;1.80;1.70;;;17.30;99.90;;;;;;4993936;28;20470;-61
2021/08/30 12:44:04;;;;;;;1.37;1.27;;;17.50;99.90;;;;;;4994081;28;20832;-63
2021/08/30 12:46:31;;;;;;;1.47;1.20;;;17.70;99.90;;;;;;4994018;28;20497;-61
2021/08/30 12:48:59;;;;;;;1.40;1.30;;;17.80;99.90;;;;;;4994093;28;20443;-62
2021/08/30 12:51:26;;;;;;;1.40;1.30;;;18.00;99.90;;;;;;4992975;28;20470;-62
2021/08/30 12:53:55;;;;;;;1.73;1.33;;;18.20;99.90;;;;;;4994130;28;20482;-61
2021/08/30 12:56:22;;;;;;;1.30;1.20;;;18.30;99.90;;;;;;5010401;28;20449;-62